createdAt,value
2018-07-07T00:01:01.899Z,68.40
2018-07-07T00:03:29.244Z,68.20
2018-07-07T00:05:56.574Z,68.50
2018-07-07T00:08:23.879Z,68.80
2018-07-07T00:10:54.936Z,68.80
2018-07-07T00:13:22.293Z,68.90
2018-07-07T00:15:49.848Z,69.10
2018-07-07T00:18:17.160Z,69.10
2018-07-07T00:20:44.466Z,69.20
2018-07-07T00:23:11.796Z,69.30
2018-07-07T00:25:39.204Z,69.10
2018-07-07T00:28:06.561Z,69.50
2018-07-07T00:30:33.994Z,69.70
2018-07-07T00:35:28.585Z,69.40
2018-07-07T00:37:56.000Z,69.50
2018-07-07T00:40:23.301Z,69.10
2018-07-07T00:42:50.652Z,69.10
2018-07-07T00:45:18.000Z,68.80
2018-07-07T00:47:45.314Z,68.90
2018-07-07T00:50:12.664Z,69.00
2018-07-07T00:52:41.042Z,69.40
2018-07-07T00:55:08.362Z,69.40
2018-07-07T00:57:35.695Z,69.40
2018-07-07T01:00:03.017Z,69.50
2018-07-07T01:02:30.379Z,69.40
2018-07-07T01:04:57.740Z,69.40
2018-07-07T01:07:25.045Z,69.40
2018-07-07T01:09:52.426Z,69.50
2018-07-07T01:12:19.755Z,69.60
2018-07-07T01:14:47.124Z,69.70
2018-07-07T01:17:14.411Z,70.00
2018-07-07T01:22:09.608Z,70.70
2018-07-07T01:24:36.929Z,70.80
2018-07-07T01:27:04.469Z,70.50
2018-07-07T01:29:31.797Z,70.40
2018-07-07T01:31:59.137Z,70.40
2018-07-07T01:34:26.459Z,70.60
2018-07-07T01:36:53.800Z,71.30
2018-07-07T01:39:21.128Z,71.50
2018-07-07T01:41:48.476Z,71.00
2018-07-07T01:44:15.762Z,71.00
2018-07-07T01:46:43.113Z,71.30
2018-07-07T01:49:10.402Z,71.70
2018-07-07T01:51:37.743Z,71.80
2018-07-07T01:54:05.066Z,72.00
2018-07-07T01:56:32.436Z,72.40
2018-07-07T01:58:59.768Z,72.30
2018-07-07T02:01:27.092Z,72.40
2018-07-07T02:03:54.448Z,72.40
2018-07-07T02:06:21.843Z,72.70
2018-07-07T02:08:49.179Z,72.60
2018-07-07T02:11:16.503Z,72.00
2018-07-07T02:13:43.842Z,71.90
2018-07-07T02:16:11.164Z,71.90
2018-07-07T02:18:38.479Z,71.60
2018-07-07T02:21:05.936Z,71.30
2018-07-07T02:23:33.627Z,71.30
2018-07-07T02:26:00.996Z,71.10
2018-07-07T02:28:28.321Z,71.00
2018-07-07T02:30:55.626Z,70.90
2018-07-07T02:33:22.958Z,71.20
2018-07-07T02:35:50.271Z,71.40
2018-07-07T02:38:17.979Z,70.70
2018-07-07T02:40:45.358Z,70.40
2018-07-07T02:43:12.676Z,71.10
2018-07-07T02:45:39.974Z,71.10
2018-07-07T02:48:07.344Z,71.00
2018-07-07T02:50:34.660Z,71.20
2018-07-07T02:53:01.992Z,71.20
2018-07-07T02:55:29.308Z,70.90
2018-07-07T02:57:56.648Z,70.70
2018-07-07T03:00:23.982Z,70.80
2018-07-07T03:02:51.312Z,71.00
2018-07-07T03:05:18.617Z,71.50
2018-07-07T03:07:45.924Z,71.20
2018-07-07T03:10:13.889Z,71.10
2018-07-07T03:12:41.184Z,71.00
2018-07-07T03:15:08.521Z,71.00
2018-07-07T03:17:36.877Z,71.00
2018-07-07T03:20:04.458Z,70.60
2018-07-07T03:22:31.888Z,70.80
2018-07-07T03:24:59.195Z,71.00
2018-07-07T03:27:26.502Z,71.10
2018-07-07T03:29:53.806Z,71.40
2018-07-07T03:32:21.230Z,71.30
2018-07-07T03:34:48.530Z,71.50
2018-07-07T03:39:43.033Z,71.50
2018-07-07T03:42:10.355Z,71.70
2018-07-07T03:44:37.665Z,71.50
2018-07-07T03:47:05.000Z,71.50
2018-07-07T03:49:32.306Z,71.70
2018-07-07T03:51:59.643Z,71.50
2018-07-07T03:54:26.966Z,71.40
2018-07-07T03:56:54.297Z,71.40
2018-07-07T03:59:21.598Z,71.80
2018-07-07T04:01:48.903Z,71.80
2018-07-07T04:04:16.246Z,71.70
2018-07-07T04:06:43.560Z,71.30
2018-07-07T04:09:10.898Z,71.20
2018-07-07T04:11:38.174Z,71.00
2018-07-07T04:14:05.486Z,70.90
2018-07-07T04:16:32.843Z,71.00
2018-07-07T04:19:00.466Z,71.30
2018-07-07T04:21:27.782Z,71.20
2018-07-07T04:23:55.098Z,71.20
2018-07-07T04:26:22.412Z,70.80
2018-07-07T04:28:49.864Z,70.30
2018-07-07T04:31:17.177Z,69.90
2018-07-07T04:33:45.035Z,69.90
2018-07-07T04:36:12.338Z,70.00
2018-07-07T04:38:39.651Z,70.00
2018-07-07T04:41:06.958Z,70.20
2018-07-07T04:43:34.294Z,70.10
2018-07-07T04:46:01.696Z,69.90
2018-07-07T04:48:28.910Z,69.60
2018-07-07T04:50:56.228Z,69.50
2018-07-07T04:53:23.517Z,69.50
2018-07-07T04:55:50.859Z,69.30
2018-07-07T04:58:18.179Z,68.80
2018-07-07T05:00:45.484Z,68.90
2018-07-07T05:03:12.816Z,69.20
2018-07-07T05:05:40.124Z,68.90
2018-07-07T05:08:07.454Z,68.70
2018-07-07T05:10:34.760Z,68.90
2018-07-07T05:13:02.092Z,69.20
2018-07-07T05:15:29.470Z,69.20
2018-07-07T05:17:56.751Z,69.10
2018-07-07T05:20:24.098Z,69.30
2018-07-07T05:22:51.404Z,69.20
2018-07-07T05:25:18.723Z,68.90
2018-07-07T05:27:46.028Z,68.70
2018-07-07T05:30:13.366Z,68.40
2018-07-07T05:32:40.687Z,68.40
2018-07-07T05:35:08.005Z,68.40
2018-07-07T05:37:35.311Z,68.40
2018-07-07T05:40:03.076Z,68.90
2018-07-07T05:42:30.411Z,69.00
2018-07-07T05:44:57.783Z,68.40
2018-07-07T05:47:25.122Z,68.00
2018-07-07T05:49:52.445Z,67.50
2018-07-07T05:52:19.796Z,66.80
2018-07-07T05:54:47.174Z,66.70
2018-07-07T05:57:14.491Z,67.40
2018-07-07T06:02:09.042Z,66.70
2018-07-07T06:04:36.348Z,65.90
2018-07-07T06:07:03.903Z,66.10
2018-07-07T06:09:46.370Z,65.30
2018-07-07T06:12:13.686Z,63.80
2018-07-07T06:14:41.019Z,63.60
2018-07-07T06:17:08.331Z,62.70
2018-07-07T06:19:35.647Z,63.00
2018-07-07T06:22:02.989Z,61.70
2018-07-07T06:24:30.286Z,61.40
2018-07-07T06:29:24.916Z,61.90
2018-07-07T06:34:19.466Z,60.80
2018-07-07T06:36:46.807Z,61.10
2018-07-07T06:39:14.160Z,61.10
2018-07-07T06:41:41.443Z,60.00
2018-07-07T06:44:08.767Z,60.90
2018-07-07T06:46:36.081Z,61.50
2018-07-07T06:49:03.390Z,60.80
2018-07-07T06:51:30.811Z,59.70
2018-07-07T06:53:58.472Z,60.40
2018-07-07T06:56:25.675Z,60.00
2018-07-07T06:58:53.322Z,60.20
2018-07-07T07:01:20.677Z,59.50
2018-07-07T07:03:48.011Z,59.90
2018-07-07T07:06:15.418Z,59.00
2018-07-07T07:08:42.790Z,58.90
2018-07-07T07:11:10.104Z,58.30
2018-07-07T07:13:37.417Z,57.60
2018-07-07T07:16:04.772Z,56.90
2018-07-07T07:18:32.236Z,57.20
2018-07-07T07:20:59.602Z,57.30
2018-07-07T07:23:27.026Z,57.10
2018-07-07T07:25:54.413Z,56.60
2018-07-07T07:28:21.686Z,56.40
2018-07-07T07:30:49.049Z,55.90
2018-07-07T07:35:43.615Z,54.40
2018-07-07T07:38:11.107Z,52.50
2018-07-07T07:40:38.502Z,53.10
2018-07-07T07:43:05.863Z,53.70
2018-07-07T07:45:33.274Z,55.00
2018-07-07T07:48:00.653Z,55.00
2018-07-07T07:50:27.982Z,54.40
2018-07-07T07:52:55.334Z,54.40
2018-07-07T07:55:22.732Z,54.40
2018-07-07T07:57:50.034Z,53.80
2018-07-07T08:00:17.350Z,53.50
2018-07-07T08:02:44.668Z,54.60
2018-07-07T08:05:11.999Z,54.00
2018-07-07T08:07:39.332Z,54.30
2018-07-07T08:10:06.686Z,54.00
2018-07-07T08:12:34.059Z,53.60
2018-07-07T08:15:01.386Z,53.00
2018-07-07T08:17:29.091Z,53.10
2018-07-07T08:19:56.473Z,53.30
2018-07-07T08:22:23.803Z,52.40
2018-07-07T08:24:51.184Z,52.60
2018-07-07T08:27:18.534Z,52.40
2018-07-07T08:29:45.859Z,52.70
2018-07-07T08:32:13.261Z,52.20
2018-07-07T08:34:40.586Z,52.70
2018-07-07T08:37:07.933Z,52.40
2018-07-07T08:39:35.310Z,52.30
2018-07-07T08:42:02.666Z,52.60
2018-07-07T08:44:30.014Z,52.60
2018-07-07T08:46:57.472Z,52.20
2018-07-07T08:49:25.025Z,51.90
2018-07-07T08:51:52.273Z,52.20
2018-07-07T08:54:19.584Z,52.20
2018-07-07T08:56:46.913Z,52.30
2018-07-07T08:59:14.233Z,52.60
2018-07-07T09:04:08.755Z,53.10
2018-07-07T09:06:36.088Z,53.20
2018-07-07T09:09:03.451Z,53.30
2018-07-07T09:11:30.949Z,53.40
2018-07-07T09:13:58.247Z,53.30
2018-07-07T09:16:25.606Z,53.20
2018-07-07T09:18:53.162Z,53.70
2018-07-07T09:21:20.386Z,53.80
2018-07-07T09:23:47.692Z,53.70
2018-07-07T09:26:15.009Z,53.10
2018-07-07T09:28:42.356Z,53.20
2018-07-07T09:31:09.654Z,53.40
2018-07-07T09:33:37.015Z,53.40
2018-07-07T09:36:04.327Z,52.90
2018-07-07T09:38:31.669Z,53.50
2018-07-07T09:40:58.986Z,54.00
2018-07-07T09:43:26.345Z,53.30
2018-07-07T09:45:53.685Z,53.70
2018-07-07T09:48:21.042Z,53.70
2018-07-07T09:50:48.347Z,53.10
2018-07-07T09:53:15.761Z,52.90
2018-07-07T09:55:43.252Z,53.50
2018-07-07T09:58:10.563Z,54.20
2018-07-07T10:00:37.963Z,53.40
2018-07-07T10:03:05.320Z,53.00
2018-07-07T10:05:32.627Z,53.60
2018-07-07T10:07:59.962Z,53.10
2018-07-07T10:10:27.282Z,53.30
2018-07-07T10:12:54.674Z,53.40
2018-07-07T10:15:21.978Z,54.40
2018-07-07T10:17:49.444Z,55.50
2018-07-07T10:20:16.802Z,55.60
2018-07-07T10:22:44.137Z,55.90
2018-07-07T10:25:11.498Z,55.80
2018-07-07T10:27:38.801Z,56.20
2018-07-07T10:30:06.180Z,56.00
2018-07-07T10:32:33.565Z,55.10
2018-07-07T10:35:00.912Z,55.50
2018-07-07T10:37:28.312Z,55.60
2018-07-07T10:39:55.711Z,55.50
2018-07-07T10:42:23.051Z,55.50
2018-07-07T10:44:50.373Z,55.40
2018-07-07T10:47:17.693Z,55.70
2018-07-07T10:49:45.080Z,55.10
2018-07-07T10:52:12.386Z,54.50
2018-07-07T10:54:39.777Z,54.50
2018-07-07T10:57:07.083Z,53.90
2018-07-07T10:59:34.387Z,53.90
2018-07-07T11:02:01.784Z,53.40
2018-07-07T11:04:29.133Z,53.60
2018-07-07T11:06:56.556Z,54.60
2018-07-07T11:09:23.910Z,56.40
2018-07-07T11:11:51.250Z,57.10
2018-07-07T11:14:18.574Z,57.20
2018-07-07T11:16:45.937Z,57.50
2018-07-07T11:19:13.265Z,57.10
2018-07-07T11:21:40.590Z,56.70
2018-07-07T11:24:07.917Z,55.70
2018-07-07T11:26:35.213Z,55.50
2018-07-07T11:29:02.639Z,54.70
2018-07-07T11:31:29.951Z,53.20
2018-07-07T11:33:57.299Z,52.90
2018-07-07T11:36:25.629Z,51.80
2018-07-07T11:38:52.923Z,52.60
2018-07-07T11:41:20.272Z,53.20
2018-07-07T11:43:47.740Z,54.20
2018-07-07T11:46:15.043Z,55.50
2018-07-07T11:48:42.377Z,55.80
2018-07-07T11:51:09.676Z,55.80
2018-07-07T11:53:37.021Z,56.20
2018-07-07T11:56:04.350Z,56.00
2018-07-07T11:58:31.669Z,55.80
2018-07-07T12:00:59.071Z,55.30
2018-07-07T12:03:26.447Z,54.00
2018-07-07T12:05:53.960Z,53.00
2018-07-07T12:08:22.162Z,52.20
2018-07-07T12:10:49.454Z,53.00
2018-07-07T12:13:16.790Z,54.00
2018-07-07T12:15:44.094Z,53.80
2018-07-07T12:18:11.417Z,53.80
2018-07-07T12:20:38.789Z,53.40
2018-07-07T12:25:33.406Z,53.20
2018-07-07T12:28:00.722Z,52.60
2018-07-07T12:30:28.046Z,52.60
2018-07-07T12:32:55.502Z,52.70
2018-07-07T12:35:22.894Z,52.70
2018-07-07T12:37:50.215Z,53.00
2018-07-07T12:40:17.581Z,52.80
2018-07-07T12:42:44.953Z,53.00
2018-07-07T12:45:12.291Z,53.40
2018-07-07T12:47:39.593Z,53.40
2018-07-07T12:50:06.939Z,53.20
2018-07-07T12:52:34.258Z,53.10
2018-07-07T12:55:01.566Z,52.80
2018-07-07T12:57:28.952Z,52.80
2018-07-07T12:59:56.323Z,52.20
2018-07-07T13:02:23.696Z,52.70
2018-07-07T13:04:51.017Z,53.10
2018-07-07T13:07:18.336Z,53.40
2018-07-07T13:09:45.726Z,53.50
2018-07-07T13:12:13.120Z,53.70
2018-07-07T13:14:40.366Z,53.50
2018-07-07T13:17:08.337Z,53.50
2018-07-07T13:19:35.662Z,53.80
2018-07-07T13:22:02.987Z,53.00
2018-07-07T13:24:30.373Z,53.60
2018-07-07T13:26:57.773Z,53.40
2018-07-07T13:29:25.154Z,53.70
2018-07-07T13:31:53.441Z,53.50
2018-07-07T13:34:20.730Z,52.60
2018-07-07T13:36:48.296Z,52.10
2018-07-07T13:39:15.631Z,53.00
2018-07-07T13:41:42.958Z,53.10
2018-07-07T13:44:10.322Z,53.30
2018-07-07T13:46:37.639Z,53.40
2018-07-07T13:49:05.215Z,52.80
2018-07-07T13:51:32.515Z,52.70
2018-07-07T13:53:59.844Z,52.60
2018-07-07T13:56:27.209Z,52.70
2018-07-07T13:58:54.550Z,52.80
2018-07-07T14:01:21.890Z,52.00
2018-07-07T14:03:49.242Z,52.30
2018-07-07T14:06:16.572Z,52.70
2018-07-07T14:08:43.883Z,52.80
2018-07-07T14:11:11.216Z,52.90
2018-07-07T14:13:38.547Z,52.80
2018-07-07T14:16:06.009Z,52.40
2018-07-07T14:18:33.333Z,52.50
2018-07-07T14:21:00.706Z,52.30
2018-07-07T14:23:28.207Z,52.20
2018-07-07T14:25:55.516Z,52.20
2018-07-07T14:28:22.939Z,52.90
2018-07-07T14:30:50.262Z,52.60
2018-07-07T14:33:17.642Z,52.20
2018-07-07T14:35:45.042Z,52.60
2018-07-07T14:38:12.327Z,52.30
2018-07-07T14:40:49.591Z,52.40
2018-07-07T14:43:16.916Z,53.00
2018-07-07T14:45:54.302Z,52.20
2018-07-07T14:48:21.614Z,52.10
2018-07-07T14:50:48.973Z,52.10
2018-07-07T14:53:16.329Z,52.30
2018-07-07T14:55:43.719Z,52.60
2018-07-07T14:58:11.252Z,52.70
2018-07-07T15:00:38.510Z,52.30
2018-07-07T15:03:05.826Z,52.40
2018-07-07T15:05:33.199Z,52.20
2018-07-07T15:08:00.512Z,51.50
2018-07-07T15:10:27.863Z,52.20
2018-07-07T15:12:55.182Z,52.20
2018-07-07T15:15:22.663Z,52.50
2018-07-07T15:17:49.990Z,51.80
2018-07-07T15:20:17.417Z,52.10
2018-07-07T15:22:45.097Z,51.60
2018-07-07T15:25:12.314Z,51.50
2018-07-07T15:27:39.705Z,51.10
2018-07-07T15:30:07.558Z,51.20
2018-07-07T15:32:34.890Z,51.10
2018-07-07T15:35:02.191Z,51.30
2018-07-07T15:37:29.533Z,51.10
2018-07-07T15:39:56.867Z,50.40
2018-07-07T15:42:24.201Z,50.50
2018-07-07T15:44:51.488Z,50.90
2018-07-07T15:47:18.825Z,51.50
2018-07-07T15:49:46.131Z,52.00
2018-07-07T15:52:13.479Z,51.90
2018-07-07T15:54:40.786Z,51.40
2018-07-07T15:57:08.165Z,50.70
2018-07-07T15:59:35.424Z,50.80
2018-07-07T16:02:02.744Z,50.30
2018-07-07T16:04:30.190Z,50.70
2018-07-07T16:06:57.563Z,50.00
2018-07-07T16:09:24.896Z,49.60
2018-07-07T16:11:52.195Z,49.70
2018-07-07T16:14:19.505Z,49.90
2018-07-07T16:16:46.830Z,49.80
2018-07-07T16:19:14.290Z,49.20
2018-07-07T16:24:08.805Z,50.00
2018-07-07T16:26:36.178Z,49.80
2018-07-07T16:29:03.542Z,48.50
2018-07-07T16:31:30.830Z,48.30
2018-07-07T16:36:25.407Z,47.70
2018-07-07T16:38:52.737Z,47.70
2018-07-07T16:43:47.245Z,47.20
2018-07-07T16:46:14.602Z,46.30
2018-07-07T16:48:41.910Z,46.40
2018-07-07T16:51:09.477Z,45.80
2018-07-07T16:53:36.831Z,45.90
2018-07-07T16:56:04.790Z,44.30
2018-07-07T16:58:32.963Z,44.10
2018-07-07T17:01:00.269Z,44.40
2018-07-07T17:03:27.620Z,44.90
2018-07-07T17:05:55.437Z,43.90
2018-07-07T17:08:22.774Z,44.90
2018-07-07T17:10:50.118Z,44.80
2018-07-07T17:13:17.457Z,45.40
2018-07-07T17:15:44.787Z,44.90
2018-07-07T17:18:12.118Z,44.60
2018-07-07T17:20:39.442Z,44.40
2018-07-07T17:23:06.999Z,44.90
2018-07-07T17:25:34.341Z,44.90
2018-07-07T17:28:01.628Z,44.50
2018-07-07T17:30:29.045Z,44.30
2018-07-07T17:32:56.383Z,44.00
2018-07-07T17:35:23.854Z,44.10
2018-07-07T17:37:51.218Z,44.30
2018-07-07T17:40:18.692Z,44.40
2018-07-07T17:42:46.250Z,44.30
2018-07-07T17:45:13.907Z,44.40
2018-07-07T17:47:41.217Z,44.10
2018-07-07T17:52:35.767Z,43.30
2018-07-07T17:55:03.545Z,44.20
2018-07-07T17:57:30.886Z,43.70
2018-07-07T17:59:58.311Z,44.20
2018-07-07T18:02:25.780Z,43.60
2018-07-07T18:04:53.082Z,44.00
2018-07-07T18:07:20.405Z,44.50
2018-07-07T18:09:48.003Z,45.90
2018-07-07T18:12:15.395Z,46.70
2018-07-07T18:14:42.692Z,47.00
2018-07-07T18:17:10.008Z,47.50
2018-07-07T18:19:37.315Z,48.50
2018-07-07T18:22:04.820Z,48.50
2018-07-07T18:24:32.110Z,48.90
2018-07-07T18:26:59.421Z,49.20
2018-07-07T18:29:26.775Z,49.80
2018-07-07T18:31:54.137Z,49.90
2018-07-07T18:34:21.412Z,49.40
2018-07-07T18:36:48.751Z,49.60
2018-07-07T18:39:16.090Z,49.50
2018-07-07T18:41:43.410Z,49.60
2018-07-07T18:44:10.733Z,49.40
2018-07-07T18:46:38.053Z,49.40
2018-07-07T18:49:05.352Z,49.50
2018-07-07T18:51:32.659Z,49.40
2018-07-07T18:54:00.089Z,49.60
2018-07-07T18:56:27.439Z,50.10
2018-07-07T18:58:54.721Z,50.20
2018-07-07T19:01:22.042Z,50.50
2018-07-07T19:03:49.329Z,50.40
2018-07-07T19:06:16.658Z,50.50
2018-07-07T19:08:43.961Z,50.90
2018-07-07T19:11:11.294Z,50.70
2018-07-07T19:13:38.746Z,50.70
2018-07-07T19:16:06.054Z,51.00
2018-07-07T19:18:33.448Z,51.10
2018-07-07T19:21:00.834Z,51.30
2018-07-07T19:23:28.194Z,51.40
2018-07-07T19:25:55.555Z,51.80
2018-07-07T19:28:22.873Z,52.00
2018-07-07T19:30:50.226Z,51.90
2018-07-07T19:33:17.532Z,52.20
2018-07-07T19:35:44.874Z,52.30
2018-07-07T19:38:12.214Z,52.20
2018-07-07T19:40:46.164Z,52.40
2018-07-07T19:43:13.453Z,53.10
2018-07-07T19:45:40.827Z,52.90
2018-07-07T19:48:08.131Z,53.00
2018-07-07T19:50:35.426Z,53.50
2018-07-07T19:53:02.741Z,53.80
2018-07-07T19:55:30.075Z,54.30
2018-07-07T19:57:57.809Z,53.60
2018-07-07T20:00:25.161Z,53.40
2018-07-07T20:02:52.503Z,53.80
2018-07-07T20:05:19.885Z,53.90
2018-07-07T20:07:47.247Z,53.60
2018-07-07T20:10:14.605Z,53.80
2018-07-07T20:12:41.959Z,53.80
2018-07-07T20:15:09.370Z,53.90
2018-07-07T20:17:48.109Z,54.10
2018-07-07T20:20:30.379Z,54.50
2018-07-07T20:22:57.853Z,54.70
2018-07-07T20:25:25.297Z,54.50
2018-07-07T20:27:52.632Z,54.60
2018-07-07T20:30:19.959Z,54.40
2018-07-07T20:32:47.297Z,54.60
2018-07-07T20:35:14.629Z,54.60
2018-07-07T20:37:41.954Z,54.80
2018-07-07T20:40:09.678Z,55.00
2018-07-07T20:42:36.998Z,55.10
2018-07-07T20:45:04.301Z,55.00
2018-07-07T20:47:31.634Z,55.20
2018-07-07T20:49:58.957Z,55.80
2018-07-07T20:52:26.293Z,55.20
2018-07-07T20:54:53.583Z,55.50
2018-07-07T20:57:20.907Z,55.50
2018-07-07T20:59:48.201Z,55.50
2018-07-07T21:02:15.645Z,55.40
2018-07-07T21:04:43.083Z,55.60
2018-07-07T21:07:10.422Z,55.40
2018-07-07T21:09:37.744Z,55.60
2018-07-07T21:12:05.073Z,55.70
2018-07-07T21:14:32.392Z,55.60
2018-07-07T21:16:59.712Z,55.70
2018-07-07T21:19:27.055Z,55.90
2018-07-07T21:21:54.382Z,55.80
2018-07-07T21:24:21.723Z,55.90
2018-07-07T21:26:49.040Z,55.90
2018-07-07T21:29:16.438Z,55.90
2018-07-07T21:31:44.022Z,56.00
2018-07-07T21:34:11.338Z,56.50
2018-07-07T21:36:38.629Z,56.40
2018-07-07T21:39:06.176Z,56.50
2018-07-07T21:41:33.579Z,56.30
2018-07-07T21:44:01.237Z,56.80
2018-07-07T21:46:28.690Z,56.50
2018-07-07T21:48:56.121Z,56.60
2018-07-07T21:51:23.469Z,56.80
2018-07-07T21:53:50.886Z,56.80
2018-07-07T21:56:18.154Z,57.10
2018-07-07T21:58:45.482Z,57.00
2018-07-07T22:01:20.919Z,57.40
2018-07-07T22:03:48.256Z,57.50
2018-07-07T22:08:42.825Z,57.50
2018-07-07T22:11:10.205Z,57.50
2018-07-07T22:13:37.514Z,57.30
2018-07-07T22:16:04.863Z,57.10
2018-07-07T22:18:32.175Z,57.20
2018-07-07T22:21:11.068Z,58.20
2018-07-07T22:23:38.398Z,57.70
2018-07-07T22:26:05.695Z,57.30
2018-07-07T22:28:33.015Z,57.50
2018-07-07T22:31:00.338Z,57.30
2018-07-07T22:33:27.856Z,57.50
2018-07-07T22:35:55.226Z,57.60
2018-07-07T22:40:56.220Z,58.10
2018-07-07T22:43:23.551Z,58.90
2018-07-07T22:45:50.860Z,58.40
2018-07-07T22:48:18.170Z,58.80
2018-07-07T22:50:45.490Z,58.80
2018-07-07T22:53:12.810Z,59.10
2018-07-07T22:55:40.427Z,59.10
2018-07-07T22:58:07.732Z,59.40
2018-07-07T23:00:35.023Z,58.50
2018-07-07T23:03:02.362Z,59.80
2018-07-07T23:05:29.754Z,59.70
2018-07-07T23:07:57.074Z,59.60
2018-07-07T23:10:24.406Z,59.50
2018-07-07T23:12:51.711Z,59.50
2018-07-07T23:15:19.025Z,59.60
2018-07-07T23:17:46.367Z,59.70
2018-07-07T23:20:13.692Z,60.00
2018-07-07T23:22:46.426Z,60.30
2018-07-07T23:25:13.778Z,60.70
2018-07-07T23:27:41.085Z,61.20
2018-07-07T23:30:08.396Z,60.50
2018-07-07T23:32:35.689Z,60.90
2018-07-07T23:35:03.021Z,60.70
2018-07-07T23:37:30.382Z,61.00
2018-07-07T23:39:57.894Z,61.20
2018-07-07T23:42:25.271Z,61.70
2018-07-07T23:44:52.598Z,61.70
2018-07-07T23:47:19.893Z,62.20
2018-07-07T23:49:47.206Z,62.30
2018-07-07T23:52:14.534Z,62.00
2018-07-07T23:54:41.840Z,62.60
2018-07-07T23:57:09.163Z,61.90
2018-07-07T23:59:36.521Z,62.90
